createdAt,value
2022-09-06T00:01:12.321Z,64.90
2022-09-06T00:03:40.148Z,64.90
2022-09-06T00:06:13.359Z,64.90
2022-09-06T00:08:44.059Z,64.90
2022-09-06T00:11:12.442Z,65.00
2022-09-06T00:13:40.409Z,65.00
2022-09-06T00:16:10.314Z,65.00
2022-09-06T00:18:38.423Z,65.00
2022-09-06T00:21:14.221Z,65.00
2022-09-06T00:23:43.489Z,65.00
2022-09-06T00:26:11.530Z,65.10
2022-09-06T00:28:39.762Z,65.00
2022-09-06T00:31:11.773Z,65.00
2022-09-06T00:33:39.847Z,65.10
2022-09-06T00:36:08.157Z,65.10
2022-09-06T00:38:36.306Z,65.10
2022-09-06T00:41:06.502Z,65.10
2022-09-06T00:43:34.440Z,65.10
2022-09-06T00:46:03.109Z,65.10
2022-09-06T00:48:31.445Z,65.10
2022-09-06T00:51:02.881Z,65.10
2022-09-06T00:53:32.792Z,66.00
2022-09-06T00:56:01.114Z,65.10
2022-09-06T00:58:30.391Z,65.20
2022-09-06T01:00:58.105Z,65.20
2022-09-06T01:03:26.549Z,65.20
2022-09-06T01:06:03.761Z,65.20
2022-09-06T01:08:42.840Z,65.20
2022-09-06T01:11:23.181Z,65.30
2022-09-06T01:13:59.949Z,65.20
2022-09-06T01:16:40.169Z,65.20
2022-09-06T01:19:43.531Z,65.30
2022-09-06T01:22:26.592Z,65.30
2022-09-06T01:25:10.689Z,65.30
2022-09-06T01:28:07.719Z,65.30
2022-09-06T01:30:42.735Z,65.30
2022-09-06T01:33:17.640Z,65.30
2022-09-06T01:35:51.636Z,65.30
2022-09-06T01:38:19.765Z,65.30
2022-09-06T01:40:47.473Z,65.30
2022-09-06T01:43:23.202Z,65.30
2022-09-06T01:46:01.645Z,65.40
2022-09-06T01:48:41.241Z,65.40
2022-09-06T01:51:18.037Z,65.30
2022-09-06T01:54:08.916Z,65.40
2022-09-06T01:56:44.444Z,65.40
2022-09-06T01:59:34.414Z,65.40
2022-09-06T02:02:08.447Z,65.40
2022-09-06T02:04:44.341Z,65.40
2022-09-06T02:07:18.819Z,65.40
2022-09-06T02:09:52.203Z,65.40
2022-09-06T02:12:20.883Z,65.30
2022-09-06T02:14:53.791Z,65.40
2022-09-06T02:17:25.673Z,65.40
2022-09-06T02:19:56.787Z,65.40
2022-09-06T02:22:30.217Z,65.40
2022-09-06T02:25:01.161Z,65.40
2022-09-06T02:27:31.139Z,65.40
2022-09-06T02:30:02.831Z,65.50
2022-09-06T02:32:33.167Z,66.30
2022-09-06T02:35:06.470Z,65.50
2022-09-06T02:37:34.237Z,65.50
2022-09-06T02:40:02.020Z,65.50
2022-09-06T02:42:29.882Z,65.60
2022-09-06T02:44:57.603Z,65.50
2022-09-06T02:47:26.645Z,65.60
2022-09-06T02:49:54.463Z,65.50
2022-09-06T02:52:22.165Z,65.60
2022-09-06T02:54:49.911Z,65.60
2022-09-06T02:57:17.634Z,65.60
2022-09-06T02:59:46.143Z,65.70
2022-09-06T03:02:13.904Z,65.60
2022-09-06T03:04:42.973Z,65.60
2022-09-06T03:07:10.734Z,65.60
2022-09-06T03:09:38.461Z,65.70
2022-09-06T03:12:06.409Z,65.60
2022-09-06T03:14:35.938Z,65.70
2022-09-06T03:17:03.887Z,65.70
2022-09-06T03:19:31.688Z,65.70
2022-09-06T03:22:00.704Z,65.60
2022-09-06T03:24:28.416Z,65.70
2022-09-06T03:26:56.116Z,65.70
2022-09-06T03:29:23.852Z,65.70
2022-09-06T03:31:51.570Z,65.70
2022-09-06T03:34:19.259Z,65.80
2022-09-06T03:36:47.017Z,65.70
2022-09-06T03:39:16.098Z,65.70
2022-09-06T03:41:43.841Z,65.70
2022-09-06T03:44:11.543Z,65.70
2022-09-06T03:46:39.257Z,65.70
2022-09-06T03:49:08.043Z,65.70
2022-09-06T03:51:35.759Z,65.80
2022-09-06T03:54:03.715Z,65.80
2022-09-06T03:56:32.755Z,65.70
2022-09-06T03:59:00.758Z,65.80
2022-09-06T04:01:29.027Z,65.80
2022-09-06T04:03:56.776Z,65.80
2022-09-06T04:06:24.591Z,65.80
2022-09-06T04:08:52.326Z,65.80
2022-09-06T04:11:20.397Z,65.80
2022-09-06T04:13:49.425Z,65.90
2022-09-06T04:16:17.622Z,65.90
2022-09-06T04:18:45.505Z,65.90
2022-09-06T04:21:13.228Z,65.90
2022-09-06T04:23:41.085Z,65.90
2022-09-06T04:26:08.935Z,65.90
2022-09-06T04:28:36.826Z,66.00
2022-09-06T04:31:06.345Z,66.00
2022-09-06T04:33:35.533Z,66.10
2022-09-06T04:36:05.558Z,66.10
2022-09-06T04:38:37.655Z,66.10
2022-09-06T04:41:06.024Z,66.10
2022-09-06T04:43:33.772Z,66.20
2022-09-06T04:46:06.548Z,66.20
2022-09-06T04:48:34.364Z,66.20
2022-09-06T04:51:02.086Z,66.20
2022-09-06T04:53:30.009Z,66.20
2022-09-06T04:55:58.583Z,66.30
2022-09-06T04:58:26.615Z,66.30
2022-09-06T05:00:54.791Z,66.40
2022-09-06T05:03:23.912Z,66.50
2022-09-06T05:05:51.748Z,66.60
2022-09-06T05:08:19.821Z,66.80
2022-09-06T05:10:47.527Z,67.00
2022-09-06T05:13:15.280Z,67.10
2022-09-06T05:15:43.009Z,67.20
2022-09-06T05:18:14.162Z,67.50
2022-09-06T05:20:45.185Z,67.50
2022-09-06T05:23:12.883Z,67.80
2022-09-06T05:25:40.585Z,67.90
2022-09-06T05:28:08.297Z,68.00
2022-09-06T05:30:35.995Z,68.10
2022-09-06T05:33:03.695Z,68.20
2022-09-06T05:35:31.395Z,68.30
2022-09-06T05:38:00.811Z,68.40
2022-09-06T05:40:28.532Z,68.50
2022-09-06T05:42:56.277Z,68.50
2022-09-06T05:45:24.136Z,68.60
2022-09-06T05:47:51.876Z,68.60
2022-09-06T05:50:19.606Z,68.60
2022-09-06T05:52:47.488Z,68.70
2022-09-06T05:55:16.599Z,68.70
2022-09-06T05:57:44.318Z,68.80
2022-09-06T06:00:13.547Z,68.90
2022-09-06T06:02:41.332Z,69.00
2022-09-06T06:05:09.634Z,69.10
2022-09-06T06:07:37.446Z,69.30
2022-09-06T06:10:05.832Z,69.30
2022-09-06T06:12:34.900Z,69.30
2022-09-06T06:15:02.636Z,69.20
2022-09-06T06:17:30.377Z,69.20
2022-09-06T06:19:58.250Z,69.30
2022-09-06T06:22:25.988Z,69.30
2022-09-06T06:24:53.723Z,69.30
2022-09-06T06:27:21.467Z,69.30
2022-09-06T06:29:50.520Z,69.40
2022-09-06T06:32:18.248Z,69.50
2022-09-06T06:34:46.005Z,69.60
2022-09-06T06:37:13.773Z,69.70
2022-09-06T06:39:41.581Z,69.70
2022-09-06T06:42:09.997Z,69.80
2022-09-06T06:44:53.912Z,69.80
2022-09-06T06:47:21.663Z,69.90
2022-09-06T06:49:49.488Z,70.00
2022-09-06T06:52:17.187Z,70.00
2022-09-06T06:54:44.910Z,70.10
2022-09-06T06:57:12.653Z,70.10
2022-09-06T06:59:40.699Z,70.20
2022-09-06T07:02:09.856Z,70.20
2022-09-06T07:04:37.696Z,70.20
2022-09-06T07:12:41.843Z,70.30
2022-09-06T07:15:10.271Z,70.40
2022-09-06T07:17:39.680Z,70.40
2022-09-06T07:22:37.600Z,70.40
2022-09-06T07:25:06.171Z,70.40
2022-09-06T07:27:50.134Z,70.40
2022-09-06T07:30:19.818Z,70.40
2022-09-06T07:32:49.363Z,70.40
2022-09-06T07:35:17.410Z,70.40
2022-09-06T07:37:52.060Z,70.30
2022-09-06T07:40:19.819Z,70.50
2022-09-06T07:42:47.557Z,70.40
2022-09-06T07:45:15.414Z,70.40
2022-09-06T07:47:59.166Z,70.40
2022-09-06T07:50:46.422Z,70.50
2022-09-06T07:53:18.424Z,70.40
2022-09-06T07:55:50.961Z,70.50
2022-09-06T07:58:18.675Z,70.50
2022-09-06T08:00:46.448Z,70.60
2022-09-06T08:03:14.222Z,70.60
2022-09-06T08:11:19.887Z,70.80
2022-09-06T08:13:50.754Z,70.80
2022-09-06T08:16:19.988Z,70.90
2022-09-06T08:18:51.749Z,71.00
2022-09-06T08:21:23.455Z,71.00
2022-09-06T08:23:52.652Z,71.00
2022-09-06T08:26:22.513Z,71.10
2022-09-06T08:28:54.677Z,71.20
2022-09-06T08:31:22.542Z,71.30
2022-09-06T08:33:50.819Z,71.30
2022-09-06T08:36:20.162Z,71.30
2022-09-06T08:38:47.893Z,71.30
2022-09-06T08:41:25.796Z,71.40
2022-09-06T08:46:53.478Z,71.50
2022-09-06T08:49:21.505Z,71.50
2022-09-06T08:52:15.693Z,71.60
2022-09-06T08:54:53.904Z,71.80
2022-09-06T08:57:40.636Z,71.70
2022-09-06T09:00:11.678Z,71.80
2022-09-06T09:02:45.090Z,71.80
2022-09-06T09:05:23.069Z,71.80
2022-09-06T09:08:02.137Z,71.80
2022-09-06T09:10:32.453Z,71.80
2022-09-06T09:13:03.495Z,72.60
2022-09-06T09:15:31.409Z,71.80
2022-09-06T09:18:00.774Z,71.80
2022-09-06T09:20:28.545Z,71.80
2022-09-06T09:22:57.971Z,71.80
2022-09-06T09:25:26.105Z,71.80
2022-09-06T09:27:57.740Z,71.80
2022-09-06T09:33:27.846Z,71.80
2022-09-06T09:35:56.722Z,71.80
2022-09-06T09:38:28.548Z,71.80
2022-09-06T09:40:58.379Z,71.80
2022-09-06T09:43:29.692Z,71.80
2022-09-06T09:46:12.966Z,71.90
2022-09-06T09:48:41.600Z,71.90
2022-09-06T09:51:27.410Z,71.80
2022-09-06T09:53:58.365Z,71.90
2022-09-06T09:56:33.325Z,71.80
2022-09-06T09:59:03.547Z,71.80
2022-09-06T10:01:33.755Z,72.00
2022-09-06T10:09:38.659Z,72.10
2022-09-06T10:12:07.227Z,72.00
2022-09-06T10:14:42.265Z,72.00
2022-09-06T10:17:18.486Z,71.90
2022-09-06T10:19:47.249Z,71.80
2022-09-06T10:22:30.055Z,71.70
2022-09-06T10:25:20.090Z,71.70
2022-09-06T10:28:11.625Z,71.50
2022-09-06T10:30:47.920Z,71.40
2022-09-06T10:33:28.524Z,71.30
2022-09-06T10:35:59.569Z,71.20
2022-09-06T10:38:38.752Z,71.00
2022-09-06T10:41:26.052Z,70.90
2022-09-06T10:44:01.079Z,70.80
2022-09-06T10:46:30.310Z,70.70
2022-09-06T10:48:58.573Z,71.40
2022-09-06T10:51:36.242Z,70.60
2022-09-06T10:54:09.429Z,70.60
2022-09-06T10:56:44.240Z,70.50
2022-09-06T11:02:17.167Z,70.50
2022-09-06T11:07:41.257Z,70.20
2022-09-06T11:10:16.281Z,70.00
2022-09-06T11:12:51.608Z,70.70
2022-09-06T11:15:21.865Z,69.90
2022-09-06T11:17:56.284Z,69.80
2022-09-06T11:20:32.134Z,69.80
2022-09-06T11:23:24.768Z,69.80
2022-09-06T11:26:19.776Z,69.60
2022-09-06T11:28:54.567Z,69.50
2022-09-06T11:34:21.526Z,69.40
2022-09-06T11:36:50.944Z,69.40
2022-09-06T11:42:40.975Z,69.20
2022-09-06T11:45:21.360Z,69.10
2022-09-06T11:47:50.416Z,69.00
2022-09-06T11:50:27.969Z,69.00
2022-09-06T11:53:15.242Z,69.00
2022-09-06T11:55:45.445Z,69.00
2022-09-06T11:58:24.547Z,68.90
2022-09-06T12:01:36.653Z,68.90
2022-09-06T12:04:11.205Z,68.90
2022-09-06T12:06:42.733Z,68.90
2022-09-06T12:09:30.963Z,68.80
2022-09-06T12:11:59.896Z,68.80
2022-09-06T12:14:39.538Z,68.60
2022-09-06T12:17:46.249Z,68.70
2022-09-06T12:20:52.793Z,68.60
2022-09-06T12:23:41.699Z,68.40
2022-09-06T12:26:10.748Z,68.30
2022-09-06T12:28:49.876Z,68.30
2022-09-06T12:31:35.645Z,68.30
2022-09-06T12:34:12.105Z,68.30
2022-09-06T12:36:56.248Z,68.30
2022-09-06T12:39:24.547Z,68.30
2022-09-06T12:41:56.126Z,68.30
2022-09-06T12:44:31.273Z,69.10
2022-09-06T12:47:05.695Z,68.30
2022-09-06T12:49:35.746Z,68.20
2022-09-06T12:52:09.181Z,68.20
2022-09-06T12:54:44.530Z,68.20
2022-09-06T12:57:15.116Z,68.30
2022-09-06T12:59:49.936Z,68.40
2022-09-06T13:02:23.599Z,68.50
2022-09-06T13:04:56.868Z,68.60
2022-09-06T13:07:26.985Z,68.70
2022-09-06T13:09:57.385Z,68.70
2022-09-06T13:12:27.720Z,68.80
2022-09-06T13:14:57.222Z,68.80
2022-09-06T13:17:27.081Z,68.80
2022-09-06T13:19:58.029Z,68.90
2022-09-06T13:22:47.308Z,68.90
2022-09-06T13:25:20.664Z,68.90
2022-09-06T13:27:51.052Z,68.90
2022-09-06T13:30:41.958Z,69.00
2022-09-06T13:33:24.468Z,69.00
2022-09-06T13:36:20.147Z,69.00
2022-09-06T13:38:47.977Z,69.00
2022-09-06T13:41:56.238Z,69.10
2022-09-06T13:44:31.036Z,69.10
2022-09-06T13:46:59.004Z,69.10
2022-09-06T13:49:28.212Z,69.10
2022-09-06T13:52:01.194Z,69.90
2022-09-06T13:54:29.900Z,69.10
2022-09-06T13:56:57.821Z,69.10
2022-09-06T13:59:26.116Z,69.10
2022-09-06T14:02:02.785Z,69.10
2022-09-06T14:04:31.754Z,69.10
2022-09-06T14:07:01.501Z,69.10
2022-09-06T14:09:29.530Z,69.00
2022-09-06T14:11:57.547Z,69.10
2022-09-06T14:14:25.434Z,69.00
2022-09-06T14:16:53.974Z,68.90
2022-09-06T14:19:21.777Z,69.70
2022-09-06T14:21:49.530Z,68.80
2022-09-06T14:24:18.626Z,68.80
2022-09-06T14:26:46.455Z,68.80
2022-09-06T14:29:14.178Z,68.80
2022-09-06T14:31:41.952Z,68.80
2022-09-06T14:34:09.673Z,68.80
2022-09-06T14:36:37.408Z,68.80
2022-09-06T14:39:05.320Z,68.80
2022-09-06T14:41:34.486Z,68.70
2022-09-06T14:44:02.563Z,68.60
2022-09-06T14:46:30.665Z,68.60
2022-09-06T14:49:00.809Z,68.50
2022-09-06T14:51:30.065Z,68.50
2022-09-06T14:53:59.502Z,68.30
2022-09-06T14:56:27.736Z,68.20
2022-09-06T14:58:58.294Z,68.10
2022-09-06T15:01:28.423Z,68.00
2022-09-06T15:03:58.755Z,68.00
2022-09-06T15:06:28.092Z,67.90
2022-09-06T15:08:59.290Z,67.90
2022-09-06T15:11:34.397Z,67.90
2022-09-06T15:14:04.874Z,67.80
2022-09-06T15:16:33.281Z,67.80
2022-09-06T15:19:02.863Z,67.70
2022-09-06T15:21:31.196Z,67.70
2022-09-06T15:23:59.765Z,67.60
2022-09-06T15:26:27.497Z,67.60
2022-09-06T15:28:55.281Z,67.50
2022-09-06T15:31:24.534Z,67.50
2022-09-06T15:33:52.758Z,67.40
2022-09-06T15:36:21.752Z,67.40
2022-09-06T15:38:52.180Z,67.50
2022-09-06T15:41:22.085Z,67.70
2022-09-06T15:43:51.113Z,68.10
2022-09-06T15:46:22.014Z,68.20
2022-09-06T15:48:53.585Z,68.20
2022-09-06T15:51:22.716Z,68.20
2022-09-06T15:53:50.460Z,68.00
2022-09-06T15:56:19.205Z,67.80
2022-09-06T15:58:47.685Z,67.70
2022-09-06T16:01:18.052Z,67.80
2022-09-06T16:03:48.631Z,68.00
2022-09-06T16:06:28.023Z,68.30
2022-09-06T16:08:59.212Z,68.40
2022-09-06T16:11:27.475Z,69.40
2022-09-06T16:13:55.296Z,68.70
2022-09-06T16:16:23.393Z,68.90
2022-09-06T16:18:51.793Z,69.10
2022-09-06T16:21:23.849Z,69.20
2022-09-06T16:23:53.373Z,69.20
2022-09-06T16:26:22.048Z,69.30
2022-09-06T16:28:51.045Z,69.40
2022-09-06T16:31:20.598Z,69.50
2022-09-06T16:33:48.835Z,69.60
2022-09-06T16:36:17.295Z,69.70
2022-09-06T16:38:47.361Z,69.70
2022-09-06T16:41:19.159Z,69.80
2022-09-06T16:43:49.113Z,69.90
2022-09-06T16:46:18.226Z,70.00
2022-09-06T16:48:51.794Z,70.10
2022-09-06T16:51:20.810Z,70.20
2022-09-06T16:53:50.358Z,70.20
2022-09-06T16:56:20.345Z,70.20
2022-09-06T16:58:52.026Z,70.20
2022-09-06T17:01:20.010Z,70.20
2022-09-06T17:03:48.406Z,70.20
2022-09-06T17:06:16.456Z,70.20
2022-09-06T17:08:44.436Z,70.30
2022-09-06T17:11:15.715Z,70.30
2022-09-06T17:13:45.905Z,70.30
2022-09-06T17:16:32.103Z,70.40
2022-09-06T17:19:01.181Z,70.40
2022-09-06T17:21:30.005Z,70.40
2022-09-06T17:24:02.947Z,70.50
2022-09-06T17:26:33.130Z,70.50
2022-09-06T17:29:01.242Z,70.50
2022-09-06T17:31:30.199Z,70.50
2022-09-06T17:33:59.491Z,70.60
2022-09-06T17:36:30.287Z,70.60
2022-09-06T17:39:01.360Z,70.60
2022-09-06T17:41:34.189Z,70.80
2022-09-06T17:44:01.942Z,70.90
2022-09-06T17:46:29.754Z,71.10
2022-09-06T17:48:57.916Z,71.20
2022-09-06T17:51:26.396Z,71.20
2022-09-06T17:53:54.516Z,71.20
2022-09-06T17:56:22.551Z,71.30
2022-09-06T17:58:56.132Z,71.20
2022-09-06T18:01:25.253Z,71.30
2022-09-06T18:03:53.446Z,71.30
2022-09-06T18:06:23.466Z,71.30
2022-09-06T18:08:52.697Z,71.30
2022-09-06T18:11:22.681Z,71.20
2022-09-06T18:13:57.261Z,71.20
2022-09-06T18:16:26.013Z,71.20
2022-09-06T18:18:55.751Z,71.20
2022-09-06T18:21:24.017Z,71.10
2022-09-06T18:23:52.037Z,71.10
2022-09-06T18:26:19.933Z,71.10
2022-09-06T18:28:47.776Z,71.10
2022-09-06T18:31:19.006Z,71.10
2022-09-06T18:33:47.011Z,71.10
2022-09-06T18:36:18.358Z,71.10
2022-09-06T18:38:46.905Z,71.10
2022-09-06T18:41:30.301Z,71.10
2022-09-06T18:44:02.657Z,71.10
2022-09-06T18:46:33.383Z,71.00
2022-09-06T18:49:01.449Z,71.10
2022-09-06T18:51:29.537Z,71.10
2022-09-06T18:53:59.195Z,71.10
2022-09-06T18:56:27.597Z,71.10
2022-09-06T18:58:58.167Z,71.10
2022-09-06T19:01:28.293Z,71.10
2022-09-06T19:03:58.627Z,71.20
2022-09-06T19:06:28.570Z,71.10
2022-09-06T19:08:59.490Z,71.10
2022-09-06T19:11:27.420Z,71.10
2022-09-06T19:13:56.986Z,71.10
2022-09-06T19:16:26.029Z,71.10
2022-09-06T19:18:55.960Z,71.10
2022-09-06T19:21:27.351Z,71.20
2022-09-06T19:23:58.175Z,71.10
2022-09-06T19:26:27.181Z,71.10
2022-09-06T19:28:56.608Z,71.20
2022-09-06T19:31:26.787Z,71.20
2022-09-06T19:33:56.004Z,71.20
2022-09-06T19:36:26.410Z,71.20
2022-09-06T19:39:03.722Z,71.20
2022-09-06T19:41:33.853Z,71.20
2022-09-06T19:44:01.762Z,71.20
2022-09-06T19:46:29.654Z,71.30
2022-09-06T19:48:57.582Z,71.30
2022-09-06T19:51:26.797Z,71.30
2022-09-06T19:53:57.457Z,71.40
2022-09-06T19:56:27.432Z,71.40
2022-09-06T19:58:57.143Z,71.30
2022-09-06T20:01:26.334Z,71.30
2022-09-06T20:03:54.552Z,71.20
2022-09-06T20:06:23.266Z,71.20
2022-09-06T20:08:54.542Z,71.20
2022-09-06T20:11:24.046Z,71.10
2022-09-06T20:13:52.205Z,71.10
2022-09-06T20:16:21.105Z,71.10
2022-09-06T20:18:49.393Z,71.10
2022-09-06T20:21:18.407Z,71.10
2022-09-06T20:23:50.246Z,71.10
2022-09-06T20:26:20.358Z,71.10
2022-09-06T20:28:48.764Z,71.00
2022-09-06T20:31:18.554Z,71.00
2022-09-06T20:33:49.730Z,71.00
2022-09-06T20:36:19.022Z,71.00
2022-09-06T20:38:48.685Z,71.00
2022-09-06T20:41:19.653Z,71.00
2022-09-06T20:43:52.213Z,71.00
2022-09-06T20:46:22.832Z,71.00
2022-09-06T20:48:51.685Z,71.00
2022-09-06T20:51:21.419Z,71.00
2022-09-06T20:53:53.728Z,71.00
2022-09-06T20:56:25.689Z,71.00
2022-09-06T20:58:55.697Z,71.00
2022-09-06T21:01:25.905Z,71.00
2022-09-06T21:03:55.771Z,71.00
2022-09-06T21:06:25.579Z,71.00
2022-09-06T21:08:53.747Z,71.00
2022-09-06T21:11:23.224Z,71.00
2022-09-06T21:13:52.073Z,71.00
2022-09-06T21:16:24.392Z,71.00
2022-09-06T21:18:53.341Z,71.00
2022-09-06T21:21:22.081Z,71.00
2022-09-06T21:23:50.223Z,71.00
2022-09-06T21:26:18.518Z,71.00
2022-09-06T21:28:48.490Z,71.00
2022-09-06T21:31:21.763Z,71.00
2022-09-06T21:33:52.482Z,71.00
2022-09-06T21:36:22.392Z,71.00
2022-09-06T21:38:51.851Z,71.00
2022-09-06T21:41:20.096Z,71.00
2022-09-06T21:43:53.155Z,71.00
2022-09-06T21:46:22.501Z,71.00
2022-09-06T21:48:52.348Z,71.00
2022-09-06T21:51:22.238Z,71.00
2022-09-06T21:53:51.795Z,71.00
2022-09-06T21:56:20.539Z,71.00
2022-09-06T21:58:52.741Z,70.90
2022-09-06T22:01:20.506Z,71.00
2022-09-06T22:03:48.432Z,71.00
2022-09-06T22:06:18.428Z,70.90
2022-09-06T22:08:46.621Z,70.90
2022-09-06T22:11:16.241Z,70.90
2022-09-06T22:13:44.816Z,70.90
2022-09-06T22:16:15.345Z,70.90
2022-09-06T22:18:43.312Z,70.90
2022-09-06T22:21:15.185Z,70.90
2022-09-06T22:23:42.901Z,70.80
2022-09-06T22:26:12.981Z,70.80
2022-09-06T22:28:40.953Z,70.90
2022-09-06T22:31:09.613Z,70.90
2022-09-06T22:33:39.088Z,70.90
2022-09-06T22:36:07.464Z,70.90
2022-09-06T22:38:35.197Z,70.90
2022-09-06T22:41:02.961Z,70.80
2022-09-06T22:43:30.677Z,70.80
2022-09-06T22:46:05.302Z,70.80
2022-09-06T22:48:33.496Z,70.80
2022-09-06T22:51:03.939Z,70.80
2022-09-06T22:53:32.789Z,70.80
2022-09-06T22:56:01.286Z,70.80
2022-09-06T22:58:29.413Z,70.80
2022-09-06T23:00:58.137Z,70.90
2022-09-06T23:03:25.943Z,70.80
2022-09-06T23:05:53.689Z,70.80
2022-09-06T23:08:22.714Z,70.80
2022-09-06T23:10:50.459Z,70.80
2022-09-06T23:13:18.200Z,70.80
2022-09-06T23:15:47.542Z,70.80
2022-09-06T23:18:16.473Z,70.80
2022-09-06T23:20:44.288Z,70.80
2022-09-06T23:23:11.996Z,70.80
2022-09-06T23:25:41.052Z,70.80
2022-09-06T23:28:09.028Z,70.80
2022-09-06T23:30:38.592Z,70.80
2022-09-06T23:33:06.653Z,70.80
2022-09-06T23:35:34.412Z,70.80
2022-09-06T23:38:02.136Z,70.80
2022-09-06T23:40:29.899Z,70.80
2022-09-06T23:42:58.952Z,70.80
2022-09-06T23:45:27.216Z,70.80
2022-09-06T23:47:55.033Z,70.80
2022-09-06T23:50:22.797Z,70.80
2022-09-06T23:52:50.520Z,70.80
2022-09-06T23:55:18.277Z,70.70
2022-09-06T23:57:45.992Z,70.80
